Time;durP1;ratioP1;P1;durP2;ratioP2;P2;SDS_P1;SDS_P2;PMS_P1;PMS_P2;Temp;Humidity;BMP_temperature;BMP_pressure;BME280_temperature;BME280_humidity;BME280_pressure;Samples;Min_cycle;Max_cycle;Signal;HPM_P1;HPM_P2
2023/03/18 00:00:10;;;;;;;3.70;2.70;;;11.50;99.90;;;;;;5052357;28;20417;-70
2023/03/18 00:02:37;;;;;;;4.33;2.47;;;11.50;99.90;;;;;;5052387;28;20447;-70
2023/03/18 00:05:06;;;;;;;5.20;3.20;;;11.40;99.90;;;;;;5039625;28;20493;-71
2023/03/18 00:07:32;;;;;;;2.83;2.60;;;11.40;99.90;;;;;;5031114;28;20479;-72
2023/03/18 00:09:57;;;;;;;5.03;2.67;;;11.40;99.90;;;;;;5032548;28;20410;-71
2023/03/18 00:12:23;;;;;;;3.87;2.40;;;11.40;99.90;;;;;;5032240;28;20421;-70
2023/03/18 00:14:50;;;;;;;3.80;3.23;;;11.50;99.90;;;;;;5032361;28;20536;-71
2023/03/18 00:17:16;;;;;;;4.60;3.20;;;11.50;99.90;;;;;;5032503;28;20406;-70
2023/03/18 00:19:42;;;;;;;6.20;2.90;;;11.40;99.90;;;;;;5032421;28;20410;-70
2023/03/18 00:22:09;;;;;;;4.53;2.40;;;11.50;99.90;;;;;;5031930;28;20571;-70
2023/03/18 00:24:35;;;;;;;2.93;2.63;;;11.50;99.90;;;;;;5032280;28;20810;-70
2023/03/18 00:27:01;;;;;;;3.77;2.77;;;11.50;99.90;;;;;;5031800;28;20915;-72
2023/03/18 00:29:26;;;;;;;5.10;3.50;;;11.60;99.90;;;;;;5031862;28;20428;-70
2023/03/18 00:31:52;;;;;;;8.20;2.47;;;11.60;99.90;;;;;;5031866;28;20206;-70
2023/03/18 00:34:17;;;;;;;3.27;2.90;;;11.50;99.90;;;;;;5031926;28;20199;-70
2023/03/18 00:36:44;;;;;;;4.43;2.70;;;11.40;99.90;;;;;;5031998;28;20190;-72
2023/03/18 00:39:12;;;;;;;4.70;2.90;;;11.20;99.90;;;;;;5031744;28;20160;-69
2023/03/18 00:41:37;;;;;;;3.77;2.93;;;11.20;99.90;;;;;;5031694;28;20418;-70
2023/03/18 00:44:03;;;;;;;10.47;4.87;;;11.20;99.90;;;;;;5034072;28;20394;-71
2023/03/18 00:46:32;;;;;;;4.50;3.70;;;11.20;99.90;;;;;;5035914;28;20406;-69
2023/03/18 00:49:01;;;;;;;3.93;2.93;;;11.20;99.90;;;;;;5035303;28;20409;-70
2023/03/18 00:51:30;;;;;;;5.27;3.80;;;11.20;99.90;;;;;;5035552;28;20422;-71
2023/03/18 00:53:57;;;;;;;5.57;3.57;;;11.20;99.90;;;;;;5034525;28;20432;-70
2023/03/18 00:56:31;;;;;;;3.97;3.33;;;11.20;99.90;;;;;;5035622;28;20806;-70
2023/03/18 00:58:57;;;;;;;5.03;4.17;;;11.20;99.90;;;;;;5035542;28;20401;-70
2023/03/18 01:01:24;;;;;;;4.13;3.37;;;11.30;99.90;;;;;;5065664;28;20408;-71
2023/03/18 01:03:50;;;;;;;6.83;3.53;;;11.30;99.90;;;;;;5053246;28;20417;-70
2023/03/18 01:06:21;;;;;;;3.30;3.00;;;11.40;99.90;;;;;;5034693;28;20418;-70
2023/03/18 01:08:47;;;;;;;5.70;3.53;;;11.40;99.90;;;;;;5035372;28;20167;-71
2023/03/18 01:11:13;;;;;;;7.23;3.60;;;11.50;99.90;;;;;;5035225;28;20476;-71
2023/03/18 01:13:39;;;;;;;4.00;2.87;;;11.50;99.90;;;;;;5035490;28;20426;-70
2023/03/18 01:16:06;;;;;;;12.03;2.87;;;11.50;99.90;;;;;;5035281;28;20194;-71
2023/03/18 01:18:33;;;;;;;5.73;3.23;;;11.50;99.90;;;;;;5034980;28;20918;-70
2023/03/18 01:20:59;;;;;;;6.60;3.53;;;11.50;99.90;;;;;;5035225;28;20406;-70
2023/03/18 01:23:25;;;;;;;3.97;3.13;;;11.50;99.90;;;;;;5035111;28;20563;-71
2023/03/18 01:25:51;;;;;;;4.50;2.87;;;11.50;99.90;;;;;;5035429;28;20488;-71
2023/03/18 01:28:17;;;;;;;4.37;3.60;;;11.40;99.90;;;;;;5035034;28;20814;-70
2023/03/18 01:30:42;;;;;;;7.67;4.07;;;11.40;99.90;;;;;;5035151;28;20541;-70
2023/03/18 01:33:08;;;;;;;14.63;4.00;;;11.30;99.90;;;;;;5035137;28;20191;-70
2023/03/18 01:35:35;;;;;;;8.40;4.20;;;11.30;99.90;;;;;;5035105;28;20257;-70
2023/03/18 01:38:03;;;;;;;8.57;3.33;;;11.20;99.90;;;;;;5034713;28;20625;-69
2023/03/18 01:40:32;;;;;;;5.10;3.60;;;11.10;99.90;;;;;;5035038;28;20407;-70
2023/03/18 01:43:13;;;;;;;4.40;3.37;;;11.20;99.90;;;;;;5034940;28;20765;-70
2023/03/18 01:45:41;;;;;;;10.97;4.00;;;11.20;99.90;;;;;;5035019;28;20971;-71
2023/03/18 01:48:13;;;;;;;3.70;3.40;;;11.20;99.90;;;;;;5034512;28;20765;-70
2023/03/18 01:50:38;;;;;;;3.03;2.43;;;11.20;99.90;;;;;;5034765;28;20417;-70
2023/03/18 01:53:09;;;;;;;12.77;4.10;;;11.20;99.90;;;;;;5034946;28;20472;-71
2023/03/18 01:55:36;;;;;;;5.00;3.00;;;11.20;99.90;;;;;;5033519;28;20191;-70
2023/03/18 01:58:06;;;;;;;3.00;2.30;;;11.20;99.90;;;;;;5034415;28;20453;-71
2023/03/18 02:00:35;;;;;;;3.97;3.33;;;11.20;99.90;;;;;;5034939;28;20820;-71
2023/03/18 02:03:00;;;;;;;4.77;3.70;;;11.20;99.90;;;;;;5034976;28;20437;-71
2023/03/18 02:05:27;;;;;;;8.73;3.47;;;11.10;99.90;;;;;;5037583;28;20933;-71
2023/03/18 02:07:52;;;;;;;3.93;3.47;;;11.00;99.90;;;;;;5063256;28;20172;-72
2023/03/18 02:10:24;;;;;;;6.57;3.60;;;10.90;99.90;;;;;;5073804;28;20408;-71
2023/03/18 02:12:57;;;;;;;4.53;3.80;;;10.80;99.90;;;;;;5074580;28;20209;-71
2023/03/18 02:15:25;;;;;;;3.70;3.23;;;10.60;99.90;;;;;;5074430;28;20948;-70
2023/03/18 02:18:01;;;;;;;3.33;3.03;;;10.60;99.90;;;;;;5073824;28;20909;-69
2023/03/18 02:20:51;;;;;;;5.80;3.27;;;10.60;99.90;;;;;;5074172;28;20787;-70
2023/03/18 02:23:36;;;;;;;5.57;3.20;;;10.50;99.90;;;;;;5074326;28;20440;-71
2023/03/18 02:26:24;;;;;;;5.37;3.63;;;10.40;99.90;;;;;;5075519;28;20531;-71
2023/03/18 02:28:53;;;;;;;7.57;4.23;;;10.30;99.90;;;;;;5067550;28;20852;-70
2023/03/18 02:31:19;;;;;;;8.73;5.03;;;10.30;99.90;;;;;;5054520;28;20835;-70
2023/03/18 02:33:46;;;;;;;8.20;4.73;;;10.20;99.90;;;;;;5054695;28;20400;-70
2023/03/18 02:36:18;;;;;;;6.50;4.23;;;10.20;99.90;;;;;;5054344;28;20451;-70
2023/03/18 02:38:45;;;;;;;6.40;4.60;;;10.20;99.90;;;;;;5053459;28;20984;-71
2023/03/18 02:41:14;;;;;;;5.63;4.77;;;10.10;99.90;;;;;;5053737;28;20853;-70
2023/03/18 02:43:40;;;;;;;9.00;5.50;;;10.10;99.90;;;;;;5053570;28;20448;-71
2023/03/18 02:46:25;;;;;;;8.40;4.97;;;10.00;99.90;;;;;;5053692;28;20409;-71
2023/03/18 02:48:52;;;;;;;9.50;5.90;;;10.00;99.90;;;;;;5053400;28;20427;-70
2023/03/18 02:51:19;;;;;;;10.03;5.90;;;9.90;99.90;;;;;;5054123;28;20405;-71
2023/03/18 02:53:46;;;;;;;7.53;5.30;;;9.80;99.90;;;;;;5054154;28;20485;-70
2023/03/18 02:56:12;;;;;;;8.53;5.90;;;9.70;99.90;;;;;;5053185;28;20445;-69
2023/03/18 02:58:38;;;;;;;5.23;4.67;;;9.70;99.90;;;;;;5053609;28;20877;-72
2023/03/18 03:01:06;;;;;;;6.50;4.40;;;9.60;99.90;;;;;;5054097;28;20981;-71
2023/03/18 03:03:33;;;;;;;4.30;3.90;;;9.60;99.90;;;;;;5053930;28;20401;-72
2023/03/18 03:05:59;;;;;;;7.87;4.80;;;9.50;99.90;;;;;;5053779;28;20401;-70
2023/03/18 03:08:25;;;;;;;5.93;4.20;;;9.40;99.90;;;;;;5053600;28;20463;-71
2023/03/18 03:10:51;;;;;;;4.90;4.40;;;9.40;99.90;;;;;;5054041;28;20789;-70
2023/03/18 03:13:18;;;;;;;6.40;3.77;;;9.40;99.90;;;;;;5053476;28;20206;-69
2023/03/18 03:15:43;;;;;;;6.40;3.77;;;9.30;99.90;;;;;;5053698;28;20189;-71
2023/03/18 03:18:09;;;;;;;3.70;2.80;;;9.20;99.90;;;;;;5060415;28;20444;-70
2023/03/18 03:20:36;;;;;;;4.33;3.53;;;9.20;99.90;;;;;;5058003;28;20529;-71
2023/03/18 03:23:03;;;;;;;4.13;3.43;;;9.20;99.90;;;;;;5053642;28;20643;-70
2023/03/18 03:25:29;;;;;;;2.47;2.27;;;9.20;99.90;;;;;;5053434;28;20409;-70
2023/03/18 03:27:55;;;;;;;4.60;3.70;;;9.10;99.90;;;;;;5053058;28;20485;-70
2023/03/18 03:30:22;;;;;;;3.53;2.90;;;9.00;99.90;;;;;;5053427;28;20405;-70
2023/03/18 03:32:48;;;;;;;3.60;2.90;;;9.10;99.90;;;;;;5052819;28;20425;-70
2023/03/18 03:35:15;;;;;;;6.70;3.13;;;9.10;99.90;;;;;;5052675;28;20408;-70
2023/03/18 03:37:42;;;;;;;10.70;7.33;;;9.10;99.90;;;;;;5052159;28;20183;-71
2023/03/18 03:40:11;;;;;;;5.70;4.00;;;9.10;99.90;;;;;;5052628;28;20398;-70
2023/03/18 03:42:37;;;;;;;4.70;2.73;;;9.10;99.90;;;;;;5052539;28;20429;-69
2023/03/18 03:45:04;;;;;;;6.00;3.57;;;9.10;99.90;;;;;;5052683;28;20393;-70
2023/03/18 03:47:30;;;;;;;7.80;4.03;;;9.10;99.90;;;;;;5052035;28;20406;-70
2023/03/18 03:49:56;;;;;;;3.27;2.60;;;9.00;99.90;;;;;;5052575;28;20830;-70
2023/03/18 03:52:22;;;;;;;4.03;3.30;;;9.00;99.90;;;;;;5051079;28;20453;-70
2023/03/18 03:54:47;;;;;;;5.27;3.43;;;9.00;99.90;;;;;;5052363;28;20484;-69
2023/03/18 03:57:13;;;;;;;3.80;3.50;;;9.00;99.90;;;;;;5052126;28;20812;-70
2023/03/18 03:59:39;;;;;;;4.00;3.60;;;9.10;99.90;;;;;;5052374;28;20167;-69
2023/03/18 04:02:04;;;;;;;6.17;4.53;;;9.10;99.90;;;;;;5052279;28;20418;-70
2023/03/18 04:04:30;;;;;;;5.10;3.83;;;9.10;99.90;;;;;;5042963;28;20171;-70
2023/03/18 04:06:57;;;;;;;5.80;5.03;;;9.10;99.90;;;;;;5032280;28;20664;-71
2023/03/18 04:09:22;;;;;;;7.57;4.47;;;9.10;99.90;;;;;;5032236;28;20259;-70
2023/03/18 04:11:48;;;;;;;6.00;4.07;;;9.20;99.90;;;;;;5032105;28;20501;-70
2023/03/18 04:14:13;;;;;;;6.83;4.37;;;9.20;99.90;;;;;;5032087;28;20190;-69
2023/03/18 04:16:39;;;;;;;5.10;4.30;;;9.20;99.90;;;;;;5030981;28;20202;-70
2023/03/18 04:19:06;;;;;;;6.93;5.43;;;9.20;99.90;;;;;;5031895;28;20164;-69
2023/03/18 04:21:32;;;;;;;8.70;6.80;;;9.20;99.90;;;;;;5031937;28;20266;-71
2023/03/18 04:23:57;;;;;;;5.53;4.93;;;9.20;99.90;;;;;;5031425;28;21019;-70
2023/03/18 04:26:23;;;;;;;4.67;4.27;;;9.30;99.90;;;;;;5032029;28;20441;-69
2023/03/18 04:28:49;;;;;;;7.67;5.57;;;9.30;99.90;;;;;;5038749;28;20679;-70
2023/03/18 04:31:15;;;;;;;7.13;4.63;;;9.30;99.90;;;;;;5063055;28;20412;-70
2023/03/18 04:33:42;;;;;;;7.43;5.17;;;9.30;99.90;;;;;;5052962;28;20173;-69
2023/03/18 04:36:08;;;;;;;7.23;5.30;;;9.30;99.90;;;;;;5052133;28;20445;-69
2023/03/18 04:38:34;;;;;;;9.33;5.33;;;9.30;99.90;;;;;;5051570;28;20405;-70
2023/03/18 04:40:59;;;;;;;7.57;5.50;;;9.30;99.90;;;;;;5051843;28;20902;-71
2023/03/18 04:43:25;;;;;;;5.93;5.43;;;9.40;99.90;;;;;;5051828;28;20184;-70
2023/03/18 04:45:51;;;;;;;7.07;5.50;;;9.40;99.90;;;;;;5051855;28;20170;-70
2023/03/18 04:48:17;;;;;;;8.07;4.73;;;9.40;99.90;;;;;;5051539;28;20254;-70
2023/03/18 04:50:43;;;;;;;7.63;4.73;;;9.40;99.90;;;;;;5052021;28;20961;-69
2023/03/18 04:53:10;;;;;;;6.03;4.33;;;9.40;99.90;;;;;;5051649;28;20632;-70
2023/03/18 04:55:35;;;;;;;4.93;4.47;;;9.40;99.90;;;;;;5052738;28;20782;-69
2023/03/18 04:58:01;;;;;;;5.30;4.80;;;9.40;99.90;;;;;;5052389;28;20531;-71
2023/03/18 05:00:26;;;;;;;4.97;3.83;;;9.40;99.90;;;;;;5052629;28;20186;-71
2023/03/18 05:02:52;;;;;;;8.33;5.17;;;9.40;99.90;;;;;;5052596;28;20648;-70
2023/03/18 05:05:17;;;;;;;14.00;4.83;;;9.40;99.90;;;;;;5037442;28;20171;-70
2023/03/18 05:07:43;;;;;;;4.93;4.40;;;9.30;99.90;;;;;;5030619;28;20641;-71
2023/03/18 05:10:10;;;;;;;5.00;4.20;;;9.30;99.90;;;;;;5032543;28;20250;-71
2023/03/18 05:12:36;;;;;;;6.13;4.97;;;9.30;99.90;;;;;;5032736;28;20195;-71
2023/03/18 05:15:02;;;;;;;5.40;4.07;;;9.30;99.90;;;;;;5032427;28;20433;-70
2023/03/18 05:17:28;;;;;;;5.10;3.93;;;9.30;99.90;;;;;;5032267;28;20164;-70
2023/03/18 05:19:54;;;;;;;6.23;4.50;;;9.30;99.90;;;;;;5032220;28;20406;-70
2023/03/18 05:22:20;;;;;;;5.20;3.63;;;9.20;99.90;;;;;;5032179;28;20842;-71
2023/03/18 05:24:47;;;;;;;4.33;3.90;;;9.20;99.90;;;;;;5032478;28;20716;-71
2023/03/18 05:27:14;;;;;;;5.70;5.10;;;9.10;99.90;;;;;;5031868;28;20398;-73
2023/03/18 05:29:40;;;;;;;4.80;3.80;;;9.10;99.90;;;;;;5033862;28;20411;-72
2023/03/18 05:32:06;;;;;;;4.30;3.80;;;9.10;99.90;;;;;;5036059;28;20556;-72
2023/03/18 05:34:33;;;;;;;4.30;3.90;;;9.00;99.90;;;;;;5035795;28;20873;-72
2023/03/18 05:36:59;;;;;;;4.07;3.67;;;9.00;99.90;;;;;;5035496;28;20241;-71
2023/03/18 05:39:25;;;;;;;3.87;3.50;;;8.90;99.90;;;;;;5035726;28;20485;-73
2023/03/18 05:41:51;;;;;;;4.27;3.87;;;8.80;99.90;;;;;;5065379;28;20877;-69
2023/03/18 05:44:16;;;;;;;4.90;3.80;;;8.80;99.90;;;;;;5054246;28;20448;-69
2023/03/18 05:46:42;;;;;;;4.90;3.50;;;8.70;99.90;;;;;;5055713;28;20977;-71
2023/03/18 05:49:08;;;;;;;4.70;4.10;;;8.70;99.90;;;;;;5055086;28;20195;-70
2023/03/18 05:51:33;;;;;;;8.20;4.27;;;8.70;99.90;;;;;;5055156;28;20193;-71
2023/03/18 05:53:59;;;;;;;7.80;3.87;;;8.60;99.90;;;;;;5055437;28;20220;-70
2023/03/18 05:56:25;;;;;;;5.20;4.57;;;8.60;99.90;;;;;;5053832;28;20206;-71
2023/03/18 05:58:50;;;;;;;9.27;5.43;;;8.50;99.90;;;;;;5055165;28;20224;-70
2023/03/18 06:01:18;;;;;;;5.70;4.47;;;8.50;99.90;;;;;;5055384;28;20163;-70
2023/03/18 06:03:44;;;;;;;5.33;4.83;;;8.50;99.90;;;;;;5052731;28;20533;-70
2023/03/18 06:06:10;;;;;;;7.77;5.00;;;8.50;99.90;;;;;;5035151;28;20413;-70
2023/03/18 06:08:36;;;;;;;6.30;4.47;;;8.60;99.90;;;;;;5034970;28;20171;-71
2023/03/18 06:11:02;;;;;;;5.90;5.00;;;8.60;99.90;;;;;;5035064;28;20411;-70
2023/03/18 06:13:28;;;;;;;7.90;3.87;;;8.70;99.90;;;;;;5035138;28;20492;-69
2023/03/18 06:15:59;;;;;;;6.90;4.30;;;8.80;99.90;;;;;;5033801;28;20450;-70
2023/03/18 06:18:25;;;;;;;5.83;3.50;;;9.00;99.90;;;;;;5034562;28;20413;-70
2023/03/18 06:20:51;;;;;;;4.80;4.10;;;8.90;99.90;;;;;;5034938;28;20394;-70
2023/03/18 06:23:17;;;;;;;6.93;4.53;;;9.00;99.90;;;;;;5033742;28;20437;-70
2023/03/18 06:25:43;;;;;;;4.67;3.60;;;9.10;99.90;;;;;;5034887;28;20178;-70
2023/03/18 06:28:08;;;;;;;4.33;3.83;;;9.20;99.90;;;;;;5033556;28;20422;-70
2023/03/18 06:30:34;;;;;;;4.23;3.87;;;9.30;99.90;;;;;;5034870;28;20620;-69
2023/03/18 06:33:01;;;;;;;4.70;4.30;;;9.40;99.90;;;;;;5034441;28;20223;-70
2023/03/18 06:35:27;;;;;;;4.73;4.23;;;9.60;99.90;;;;;;5034553;28;20187;-70
2023/03/18 06:37:53;;;;;;;4.60;3.57;;;9.60;99.90;;;;;;5034334;28;20409;-69
2023/03/18 06:40:19;;;;;;;4.27;3.87;;;9.70;99.90;;;;;;5034444;28;20214;-70
2023/03/18 06:42:45;;;;;;;5.40;4.13;;;9.90;99.90;;;;;;5034107;28;20418;-70
2023/03/18 06:45:11;;;;;;;4.40;3.80;;;10.00;99.90;;;;;;5033435;28;20547;-70
2023/03/18 06:47:37;;;;;;;4.50;3.50;;;10.10;99.90;;;;;;5044870;28;20910;-70
2023/03/18 06:50:03;;;;;;;6.90;4.20;;;10.20;99.90;;;;;;5064766;28;20477;-70
2023/03/18 06:52:28;;;;;;;7.27;3.90;;;10.20;99.90;;;;;;5074357;28;20221;-70
2023/03/18 06:54:54;;;;;;;4.93;4.03;;;10.20;99.90;;;;;;5074089;28;20407;-70
2023/03/18 06:57:19;;;;;;;5.50;4.63;;;10.40;99.90;;;;;;5073959;28;20733;-70
2023/03/18 06:59:46;;;;;;;4.63;4.20;;;10.50;99.90;;;;;;5074124;28;20496;-70
2023/03/18 07:02:12;;;;;;;8.37;3.70;;;10.60;99.90;;;;;;5074163;28;20627;-70
2023/03/18 07:04:38;;;;;;;6.00;4.47;;;10.80;99.90;;;;;;5064529;28;20416;-70
2023/03/18 07:07:04;;;;;;;6.60;4.50;;;10.90;99.90;;;;;;5053906;28;20203;-69
2023/03/18 07:09:32;;;;;;;6.33;4.70;;;11.00;99.90;;;;;;5054144;28;20197;-70
2023/03/18 07:11:58;;;;;;;4.40;4.00;;;11.10;99.90;;;;;;5053573;28;20452;-70
2023/03/18 07:14:23;;;;;;;5.53;3.90;;;11.30;99.90;;;;;;5053542;28;20428;-71
2023/03/18 07:16:49;;;;;;;4.07;3.70;;;11.50;99.90;;;;;;5053596;28;20818;-69
2023/03/18 07:19:16;;;;;;;8.43;4.23;;;11.60;99.90;;;;;;5053656;28;20576;-71
2023/03/18 07:21:42;;;;;;;6.03;3.87;;;11.70;99.90;;;;;;5053682;28;20179;-70
2023/03/18 07:24:08;;;;;;;6.40;3.77;;;11.80;99.90;;;;;;5052496;28;20471;-71
2023/03/18 07:26:34;;;;;;;4.67;3.33;;;11.90;99.90;;;;;;5054210;28;20405;-71
2023/03/18 07:29:00;;;;;;;4.63;3.43;;;12.20;99.90;;;;;;5052328;28;20778;-70
2023/03/18 07:31:26;;;;;;;6.77;3.60;;;13.00;99.90;;;;;;5053599;28;20191;-70
2023/03/18 07:33:51;;;;;;;3.53;3.23;;;14.20;99.90;;;;;;5053136;28;20898;-70
2023/03/18 07:36:18;;;;;;;3.23;2.93;;;15.60;99.90;;;;;;5053430;28;20283;-71
2023/03/18 07:38:43;;;;;;;2.27;2.07;;;16.70;99.90;;;;;;5052611;28;20187;-70
2023/03/18 07:41:09;;;;;;;4.70;2.40;;;17.70;99.90;;;;;;5052792;28;20424;-71
2023/03/18 07:43:35;;;;;;;2.40;2.17;;;18.40;99.90;;;;;;5052778;28;20684;-71
2023/03/18 07:46:02;;;;;;;3.97;2.30;;;18.50;99.90;;;;;;5052230;28;20229;-71
2023/03/18 07:48:29;;;;;;;3.40;2.60;;;19.00;99.90;;;;;;5052759;28;20405;-70
2023/03/18 07:50:55;;;;;;;2.83;2.63;;;19.10;99.90;;;;;;5053515;28;20409;-71
2023/03/18 07:53:21;;;;;;;3.10;2.60;;;19.40;99.90;;;;;;5052420;28;20425;-71
2023/03/18 07:55:46;;;;;;;3.47;3.10;;;20.10;99.90;;;;;;5054281;28;20449;-70
2023/03/18 07:58:12;;;;;;;6.70;2.90;;;20.70;99.90;;;;;;5053638;28;20233;-70
2023/03/18 08:00:38;;;;;;;3.03;2.70;;;20.80;99.90;;;;;;5066443;28;20236;-72
2023/03/18 08:03:04;;;;;;;3.10;2.80;;;20.80;99.10;;;;;;5054068;28;20187;-71
2023/03/18 08:05:30;;;;;;;2.73;2.50;;;21.00;98.10;;;;;;5038184;28;20221;-70
2023/03/18 08:07:56;;;;;;;2.43;2.23;;;21.40;96.80;;;;;;5033012;28;20836;-71
2023/03/18 08:10:22;;;;;;;4.97;2.57;;;22.10;94.70;;;;;;5034748;28;20175;-71
2023/03/18 08:12:48;;;;;;;2.50;2.30;;;22.50;91.10;;;;;;5034355;28;20257;-72
2023/03/18 08:15:14;;;;;;;5.10;2.23;;;22.40;87.40;;;;;;5033952;28;20423;-71
2023/03/18 08:17:40;;;;;;;3.23;2.40;;;23.20;86.60;;;;;;5032478;28;20246;-71
2023/03/18 08:20:06;;;;;;;2.80;2.60;;;24.50;81.70;;;;;;5032308;28;20265;-71
2023/03/18 08:22:31;;;;;;;5.17;2.93;;;25.40;72.20;;;;;;5030945;28;20458;-71
2023/03/18 08:24:57;;;;;;;2.50;2.30;;;25.20;65.80;;;;;;5032147;28;20947;-71
2023/03/18 08:27:23;;;;;;;3.37;2.40;;;25.40;64.60;;;;;;5031899;28;20182;-70
2023/03/18 08:29:49;;;;;;;3.53;2.07;;;25.50;62.30;;;;;;5032169;28;20179;-71
2023/03/18 08:32:15;;;;;;;3.93;2.13;;;25.40;62.20;;;;;;5032912;28;20434;-72
2023/03/18 08:34:41;;;;;;;2.10;1.90;;;25.90;61.60;;;;;;5032262;28;20174;-70
2023/03/18 08:37:07;;;;;;;6.20;2.10;;;26.50;59.60;;;;;;5031743;28;20978;-72
2023/03/18 08:39:32;;;;;;;3.37;2.07;;;27.30;58.50;;;;;;5030854;28;20424;-71
2023/03/18 08:41:58;;;;;;;2.10;1.90;;;28.70;55.80;;;;;;5031941;28;20195;-71
2023/03/18 08:44:24;;;;;;;2.50;2.00;;;30.00;54.80;;;;;;5032382;28;20167;-72
2023/03/18 08:46:49;;;;;;;2.60;2.10;;;29.90;49.90;;;;;;5031562;28;20183;-71
2023/03/18 08:49:15;;;;;;;3.40;2.60;;;29.30;49.40;;;;;;5030909;28;20211;-72
2023/03/18 08:51:41;;;;;;;2.50;2.30;;;28.10;49.20;;;;;;5031234;28;20566;-72
2023/03/18 08:54:07;;;;;;;4.87;2.70;;;27.10;50.80;;;;;;5033508;28;20251;-72
2023/03/18 08:56:33;;;;;;;2.40;2.20;;;26.20;52.20;;;;;;5033796;28;20183;-71
2023/03/18 08:58:58;;;;;;;3.27;1.97;;;25.50;53.70;;;;;;5033177;28;20405;-71
2023/03/18 09:01:25;;;;;;;3.07;1.63;;;25.60;54.70;;;;;;5032260;28;20493;-71
2023/03/18 09:03:50;;;;;;;1.77;1.67;;;26.60;54.70;;;;;;5032537;28;20607;-71
2023/03/18 09:06:16;;;;;;;2.00;1.90;;;27.10;53.80;;;;;;5036142;28;20438;-71
2023/03/18 09:08:43;;;;;;;2.17;1.97;;;27.80;53.30;;;;;;5035575;28;20172;-71
2023/03/18 09:11:09;;;;;;;2.33;1.93;;;28.10;51.30;;;;;;5054478;28;20416;-71
2023/03/18 09:13:35;;;;;;;2.77;2.10;;;28.00;50.50;;;;;;5060406;28;20433;-72
2023/03/18 09:16:01;;;;;;;2.03;1.70;;;27.30;50.60;;;;;;5055659;28;20471;-71
2023/03/18 09:18:28;;;;;;;3.70;2.30;;;27.50;51.30;;;;;;5055438;28;20488;-71
2023/03/18 09:20:53;;;;;;;2.57;2.23;;;27.10;51.00;;;;;;5055616;28;20190;-72
2023/03/18 09:23:19;;;;;;;1.93;1.70;;;27.80;51.90;;;;;;5055835;28;20449;-71
2023/03/18 09:25:45;;;;;;;2.67;2.10;;;28.40;51.30;;;;;;5056087;28;20253;-71
2023/03/18 09:28:13;;;;;;;3.03;1.77;;;29.60;50.20;;;;;;5054617;28;20420;-71
2023/03/18 09:30:38;;;;;;;2.23;1.93;;;30.90;49.10;;;;;;5054924;28;20610;-72
2023/03/18 09:33:08;;;;;;;2.00;1.80;;;31.20;46.30;;;;;;5055155;28;20998;-71
2023/03/18 09:35:33;;;;;;;3.70;1.83;;;31.40;45.90;;;;;;5054949;28;20183;-72
2023/03/18 09:37:59;;;;;;;2.70;2.50;;;31.60;45.80;;;;;;5054152;28;20405;-71
2023/03/18 09:40:29;;;;;;;1.90;1.40;;;31.80;44.90;;;;;;5055005;28;20167;-72
2023/03/18 09:43:21;;;;;;;3.37;1.90;;;32.30;44.90;;;;;;5054742;28;20236;-71
2023/03/18 09:46:16;;;;;;;2.10;1.87;;;32.90;44.20;;;;;;5054914;28;20437;-72
2023/03/18 09:48:58;;;;;;;6.40;2.13;;;33.60;43.60;;;;;;5051331;28;20421;-69
2023/03/18 09:51:44;;;;;;;1.67;1.57;;;34.30;41.50;;;;;;5054728;28;20427;-69
2023/03/18 09:54:18;;;;;;;2.67;2.03;;;35.20;41.30;;;;;;5053502;28;20420;-69
2023/03/18 09:56:45;;;;;;;3.27;2.33;;;35.90;40.20;;;;;;5054539;28;20452;-69
2023/03/18 09:59:49;;;;;;;2.10;2.00;;;35.70;39.40;;;;;;5054344;28;20397;-70
2023/03/18 10:02:31;;;;;;;2.37;2.17;;;34.30;39.60;;;;;;5032214;28;21052;-69
2023/03/18 10:05:00;;;;;;;4.03;2.20;;;33.40;40.00;;;;;;5040594;28;20450;-69
2023/03/18 10:07:32;;;;;;;3.40;2.37;;;33.30;40.30;;;;;;5034463;28;20907;-69
2023/03/18 10:10:04;;;;;;;1.60;1.40;;;33.30;40.50;;;;;;5034476;28;20481;-72
2023/03/18 10:12:36;;;;;;;2.10;1.50;;;34.10;41.30;;;;;;5034376;28;20430;-71
2023/03/18 10:15:29;;;;;;;2.10;1.80;;;34.70;40.70;;;;;;5034223;28;20429;-69
2023/03/18 10:18:02;;;;;;;1.93;1.73;;;34.80;40.10;;;;;;5031500;28;20429;-69
2023/03/18 10:20:56;;;;;;;3.83;1.87;;;34.50;39.50;;;;;;5034355;28;20434;-69
2023/03/18 10:23:36;;;;;;;1.50;1.40;;;34.00;39.60;;;;;;5064468;28;21004;-69
2023/03/18 10:26:21;;;;;;;1.53;1.43;;;34.90;40.20;;;;;;5054016;28;20424;-70
2023/03/18 10:29:20;;;;;;;1.77;1.67;;;37.10;39.60;;;;;;5053875;28;20406;-70
2023/03/18 10:32:01;;;;;;;1.70;1.60;;;39.40;37.20;;;;;;5054033;28;20413;-69
2023/03/18 10:35:17;;;;;;;1.87;1.67;;;41.00;35.40;;;;;;5053880;28;20551;-70
2023/03/18 10:38:01;;;;;;;2.47;1.77;;;42.00;33.30;;;;;;5048792;28;20400;-71
2023/03/18 10:40:34;;;;;;;2.10;1.90;;;43.10;32.00;;;;;;5053890;28;20375;-70
2023/03/18 10:43:01;;;;;;;1.93;1.73;;;43.60;31.10;;;;;;5053741;28;20472;-70
2023/03/18 10:45:30;;;;;;;2.50;2.17;;;44.40;29.90;;;;;;5053752;28;20738;-71
2023/03/18 10:48:07;;;;;;;1.70;1.50;;;43.90;28.60;;;;;;5053470;28;20409;-71
2023/03/18 10:50:45;;;;;;;3.00;2.13;;;43.70;29.30;;;;;;5053792;28;20408;-70
2023/03/18 10:53:37;;;;;;;2.40;2.20;;;42.50;28.80;;;;;;5053281;28;20929;-70
2023/03/18 10:56:08;;;;;;;2.27;1.70;;;39.10;29.50;;;;;;5041886;28;20438;-70
2023/03/18 10:58:34;;;;;;;2.17;1.97;;;38.10;31.40;;;;;;5037343;28;20422;-72
2023/03/18 11:01:00;;;;;;;2.60;2.00;;;38.20;32.10;;;;;;5033534;28;20410;-72
2023/03/18 11:03:30;;;;;;;1.67;1.40;;;39.20;32.20;;;;;;5033341;28;20405;-70
2023/03/18 11:05:59;;;;;;;2.03;1.60;;;40.40;31.30;;;;;;5033343;28;20292;-71
2023/03/18 11:08:35;;;;;;;2.70;1.40;;;40.00;30.30;;;;;;5032820;28;20402;-72
2023/03/18 11:11:16;;;;;;;3.03;1.73;;;39.90;30.20;;;;;;5033348;28;20412;-72
2023/03/18 11:13:46;;;;;;;2.20;1.70;;;39.50;30.10;;;;;;5033206;28;20507;-70
2023/03/18 11:16:21;;;;;;;1.73;1.45;;;38.70;30.70;;;;;;5032463;28;20417;-72
2023/03/18 11:18:50;;;;;;;2.57;2.30;;;38.10;31.50;;;;;;5031578;28;20564;-70
2023/03/18 11:21:16;;;;;;;2.00;1.80;;;38.20;32.10;;;;;;5032802;28;20483;-70
2023/03/18 11:24:09;;;;;;;2.50;1.60;;;38.60;31.40;;;;;;5033023;28;20409;-72
2023/03/18 11:26:56;;;;;;;1.80;1.70;;;37.90;31.10;;;;;;5032857;28;20533;-72
2023/03/18 11:29:29;;;;;;;2.50;1.60;;;36.30;31.70;;;;;;5033053;28;20422;-71
2023/03/18 11:31:59;;;;;;;2.87;2.10;;;34.90;32.60;;;;;;5031998;28;20442;-71
2023/03/18 11:34:27;;;;;;;3.30;1.90;;;32.70;33.50;;;;;;5056297;28;20409;-71
2023/03/18 11:36:57;;;;;;;1.97;1.53;;;31.60;34.80;;;;;;5054751;28;20470;-71
2023/03/18 11:39:24;;;;;;;2.77;1.50;;;31.10;36.10;;;;;;5052620;28;20412;-72
2023/03/18 11:41:51;;;;;;;1.77;1.67;;;31.10;37.30;;;;;;5052659;28;20437;-72
2023/03/18 11:44:22;;;;;;;2.80;1.73;;;32.20;37.40;;;;;;5052613;28;20413;-72
2023/03/18 11:46:59;;;;;;;5.00;1.73;;;32.90;36.20;;;;;;5052452;28;20550;-72
2023/03/18 11:49:27;;;;;;;3.53;1.90;;;33.30;35.50;;;;;;5052515;28;20412;-70
2023/03/18 11:51:55;;;;;;;2.60;1.47;;;32.00;35.50;;;;;;5052398;28;20835;-70
2023/03/18 11:54:43;;;;;;;1.57;1.47;;;31.30;36.60;;;;;;5052338;28;20402;-70
2023/03/18 11:57:26;;;;;;;2.47;1.73;;;30.30;37.70;;;;;;5052044;28;20815;-70
2023/03/18 12:00:24;;;;;;;2.57;1.50;;;29.40;38.40;;;;;;5052391;28;20841;-70
2023/03/18 12:03:29;;;;;;;1.63;1.37;;;28.30;39.30;;;;;;5049328;28;20472;-71
2023/03/18 12:06:22;;;;;;;2.80;1.10;;;27.30;40.90;;;;;;5032264;28;20445;-70
2023/03/18 12:09:09;;;;;;;2.27;1.60;;;26.70;42.20;;;;;;5031959;28;20394;-70
2023/03/18 12:11:53;;;;;;;4.50;1.77;;;26.20;43.70;;;;;;5032275;28;20505;-70
2023/03/18 12:14:44;;;;;;;3.07;1.30;;;26.90;44.30;;;;;;5032194;28;20926;-70
2023/03/18 12:17:29;;;;;;;2.73;1.87;;;27.40;44.10;;;;;;5031968;28;20424;-72
2023/03/18 12:20:17;;;;;;;4.80;1.53;;;27.20;43.90;;;;;;5032193;28;20403;-71
2023/03/18 12:23:00;;;;;;;3.90;1.63;;;27.10;43.60;;;;;;5021625;28;20441;-72
2023/03/18 12:25:30;;;;;;;3.13;1.33;;;27.30;44.40;;;;;;5032001;28;20440;-71
2023/03/18 12:28:18;;;;;;;1.10;1.00;;;27.30;44.00;;;;;;5031788;28;20900;-71
2023/03/18 12:31:03;;;;;;;2.10;1.50;;;27.00;43.50;;;;;;5032104;28;20450;-70
2023/03/18 12:33:56;;;;;;;1.50;1.20;;;26.30;43.80;;;;;;5030664;28;20470;-69
2023/03/18 12:36:37;;;;;;;2.33;1.20;;;25.80;44.30;;;;;;5030749;28;20786;-69
2023/03/18 12:39:10;;;;;;;2.90;1.50;;;25.40;44.80;;;;;;5031235;28;20409;-70
2023/03/18 12:42:01;;;;;;;2.60;1.37;;;25.20;45.50;;;;;;5051177;28;20429;-69
2023/03/18 12:44:45;;;;;;;1.53;1.20;;;24.80;45.80;;;;;;5031949;28;20763;-70
2023/03/18 12:47:33;;;;;;;1.73;1.30;;;24.10;45.70;;;;;;5031580;28;20462;-70
2023/03/18 12:50:07;;;;;;;1.63;1.50;;;23.90;46.50;;;;;;5031835;28;20452;-70
2023/03/18 12:52:53;;;;;;;1.90;1.27;;;23.30;47.70;;;;;;5031762;28;20437;-70
2023/03/18 12:55:32;;;;;;;1.67;1.27;;;22.60;47.70;;;;;;5031734;28;20405;-70
2023/03/18 12:58:16;;;;;;;3.77;1.43;;;21.90;48.50;;;;;;5031498;28;20524;-70
2023/03/18 13:00:52;;;;;;;1.13;1.03;;;21.50;49.70;;;;;;5031765;28;20417;-70
2023/03/18 13:03:31;;;;;;;6.83;1.70;;;21.20;50.80;;;;;;5031731;28;20463;-70